createdAt,value
2018-12-23T00:03:52.771Z,14.13
2018-12-23T00:06:30.635Z,16.77
2018-12-23T00:09:33.750Z,15.00
2018-12-23T00:12:13.164Z,11.17
2018-12-23T00:14:54.962Z,20.60
2018-12-23T00:17:57.612Z,13.23
2018-12-23T00:21:03.588Z,14.23
2018-12-23T00:27:36.472Z,18.87
2018-12-23T00:30:18.277Z,20.83
2018-12-23T00:33:00.279Z,19.17
2018-12-23T00:35:38.163Z,26.53
2018-12-23T00:38:16.603Z,20.60
2018-12-23T00:40:54.677Z,21.47
2018-12-23T00:47:23.263Z,18.97
2018-12-23T00:50:26.353Z,21.03
2018-12-23T00:53:04.710Z,20.23
2018-12-23T00:59:14.521Z,17.80
2018-12-23T01:01:53.514Z,17.27
2018-12-23T01:04:31.698Z,23.90
2018-12-23T01:07:16.586Z,20.80
2018-12-23T01:09:54.804Z,21.13
2018-12-23T01:12:45.251Z,22.97
2018-12-23T01:15:25.050Z,23.93
2018-12-23T01:18:28.599Z,21.40
2018-12-23T01:21:10.258Z,22.77
2018-12-23T01:24:12.736Z,26.20
2018-12-23T01:26:51.110Z,27.17
2018-12-23T01:29:33.961Z,21.83
2018-12-23T01:32:11.827Z,26.90
2018-12-23T01:34:50.341Z,20.03
2018-12-23T01:37:53.365Z,26.87
2018-12-23T01:47:33.964Z,25.20
2018-12-23T01:50:38.026Z,28.63
2018-12-23T01:53:42.054Z,24.47
2018-12-23T02:00:15.807Z,24.20
2018-12-23T02:02:56.833Z,23.70
2018-12-23T02:05:35.744Z,27.73
2018-12-23T02:11:44.099Z,27.67
2018-12-23T02:21:23.837Z,28.33
2018-12-23T02:31:02.841Z,33.83
2018-12-23T02:34:01.574Z,30.67
2018-12-23T02:37:04.583Z,35.37
2018-12-23T02:40:08.081Z,37.33
2018-12-23T02:46:15.995Z,34.73
2018-12-23T02:52:49.675Z,44.60
2018-12-23T02:55:28.005Z,38.63
2018-12-23T03:01:36.875Z,50.60
2018-12-23T03:08:10.235Z,46.33
2018-12-23T03:14:22.982Z,52.53
2018-12-23T03:24:03.020Z,50.80
2018-12-23T03:26:45.976Z,57.17
2018-12-23T03:29:27.373Z,53.27
2018-12-23T03:32:09.583Z,56.37
2018-12-23T03:34:52.388Z,49.73
2018-12-23T03:37:33.954Z,51.90
2018-12-23T03:43:43.306Z,51.97
2018-12-23T03:46:25.027Z,48.33
2018-12-23T03:49:27.885Z,45.57
2018-12-23T03:52:09.584Z,50.90
2018-12-23T03:58:17.070Z,48.13
2018-12-23T04:00:56.855Z,39.23
2018-12-23T04:03:39.512Z,42.33
2018-12-23T04:06:24.868Z,43.50
2018-12-23T04:09:26.272Z,34.30
2018-12-23T04:12:03.734Z,43.77
2018-12-23T04:14:42.254Z,40.57
2018-12-23T04:17:18.999Z,41.20
2018-12-23T04:19:58.391Z,32.40
2018-12-23T04:22:56.723Z,36.80
2018-12-23T04:25:36.188Z,40.10
2018-12-23T04:28:40.349Z,36.43
2018-12-23T04:31:18.699Z,36.50
2018-12-23T04:37:51.414Z,39.47
2018-12-23T04:40:29.726Z,38.67
2018-12-23T04:43:32.699Z,38.63
2018-12-23T04:46:15.399Z,42.93
2018-12-23T04:49:17.781Z,43.23
2018-12-23T04:55:29.854Z,42.47
2018-12-23T04:58:22.091Z,46.83
2018-12-23T05:00:59.886Z,50.73
2018-12-23T05:03:42.901Z,47.17
2018-12-23T05:13:23.546Z,44.40
2018-12-23T05:19:35.448Z,48.23
2018-12-23T05:22:37.811Z,45.07
2018-12-23T05:25:15.998Z,48.90
2018-12-23T05:28:20.869Z,49.80
2018-12-23T05:31:02.854Z,53.77
2018-12-23T05:37:13.160Z,46.33
2018-12-23T05:46:52.990Z,57.07
2018-12-23T05:56:58.568Z,69.73
2018-12-23T05:59:38.392Z,68.27
2018-12-23T06:02:18.334Z,73.03
2018-12-23T06:05:20.949Z,67.13
2018-12-23T06:08:02.659Z,64.40
2018-12-23T06:11:06.283Z,75.33
2018-12-23T06:13:48.710Z,69.67
2018-12-23T06:16:29.434Z,70.90
2018-12-23T06:19:32.079Z,73.43
2018-12-23T06:22:13.938Z,70.20
2018-12-23T06:28:25.971Z,69.30
2018-12-23T06:31:28.558Z,70.17
2018-12-23T06:41:07.668Z,79.47
2018-12-23T06:43:46.697Z,77.83
2018-12-23T06:46:49.749Z,71.30
2018-12-23T06:52:59.616Z,75.70
2018-12-23T06:59:08.860Z,73.83
2018-12-23T07:12:43.297Z,77.40
2018-12-23T07:15:21.695Z,71.77
2018-12-23T07:21:55.315Z,77.13
2018-12-23T07:24:33.437Z,86.57
2018-12-23T07:27:11.859Z,66.23
2018-12-23T07:29:50.907Z,64.80
2018-12-23T07:32:54.898Z,74.23
2018-12-23T07:35:36.790Z,74.57
2018-12-23T07:38:16.833Z,61.27
2018-12-23T07:47:58.840Z,68.03
2018-12-23T07:54:32.343Z,66.13
2018-12-23T08:00:40.339Z,64.27
2018-12-23T08:07:13.405Z,69.70
2018-12-23T08:13:21.601Z,65.37
2018-12-23T08:16:24.639Z,73.27
2018-12-23T08:22:37.480Z,73.73
2018-12-23T08:25:18.681Z,60.57
2018-12-23T08:28:01.865Z,66.17
2018-12-23T08:30:41.660Z,56.73
2018-12-23T08:33:45.488Z,71.83
2018-12-23T08:36:23.870Z,70.03
2018-12-23T08:39:26.875Z,66.30
2018-12-23T08:45:39.282Z,67.57
2018-12-23T08:48:41.899Z,64.60
2018-12-23T08:54:51.210Z,60.97
2018-12-23T09:01:00.431Z,57.23
2018-12-23T09:04:03.080Z,54.77
2018-12-23T09:14:06.764Z,47.20
2018-12-23T09:16:45.578Z,53.23
2018-12-23T09:19:25.870Z,49.37
2018-12-23T09:22:29.216Z,50.27
2018-12-23T09:25:11.188Z,41.13
2018-12-23T09:38:16.171Z,45.33
2018-12-23T09:40:56.855Z,38.60
2018-12-23T09:43:36.767Z,41.27
2018-12-23T09:49:45.782Z,39.90
2018-12-23T09:56:18.332Z,42.00
2018-12-23T09:59:01.037Z,38.00
2018-12-23T10:05:09.912Z,35.90
2018-12-23T10:07:51.326Z,41.33
2018-12-23T10:10:29.961Z,44.33
2018-12-23T10:13:08.140Z,37.97
2018-12-23T10:16:10.856Z,36.10
2018-12-23T10:25:53.702Z,39.07
2018-12-23T10:39:07.696Z,29.23
2018-12-23T10:41:47.346Z,29.33
2018-12-23T10:44:25.852Z,29.30
2018-12-23T10:50:59.300Z,40.53
2018-12-23T11:00:49.875Z,33.47
2018-12-23T11:06:59.772Z,32.40
2018-12-23T11:09:42.261Z,37.10
2018-12-23T11:12:22.187Z,39.17
2018-12-23T11:15:25.277Z,33.10
2018-12-23T11:18:06.847Z,32.80
2018-12-23T11:20:49.872Z,35.50
2018-12-23T11:23:28.236Z,34.80
2018-12-23T11:26:07.173Z,30.97
2018-12-23T11:32:40.578Z,41.97
2018-12-23T11:39:15.603Z,32.47
2018-12-23T11:42:17.913Z,33.73
2018-12-23T11:44:56.451Z,30.03
2018-12-23T11:47:59.218Z,41.07
2018-12-23T11:54:11.775Z,25.33
2018-12-23T12:00:44.843Z,37.20
2018-12-23T12:10:24.174Z,25.60
2018-12-23T12:16:35.987Z,22.53
2018-12-23T12:19:38.504Z,18.67
2018-12-23T12:22:17.304Z,19.93
2018-12-23T12:24:57.112Z,30.10
2018-12-23T12:27:35.384Z,21.17
2018-12-23T12:30:18.199Z,22.03
2018-12-23T12:33:20.456Z,23.47
2018-12-23T12:36:23.287Z,21.43
2018-12-23T12:39:07.135Z,22.43
2018-12-23T12:41:47.034Z,22.03
2018-12-23T12:44:25.642Z,23.20
2018-12-23T12:47:06.174Z,26.70
2018-12-23T12:56:45.663Z,21.70
2018-12-23T12:59:25.629Z,24.60
2018-12-23T13:02:04.499Z,22.23
2018-12-23T13:04:43.083Z,19.87
2018-12-23T13:07:25.628Z,26.37
2018-12-23T13:10:09.797Z,24.90
2018-12-23T13:13:13.293Z,23.53
2018-12-23T13:16:16.444Z,23.23
2018-12-23T13:19:06.937Z,28.83
2018-12-23T13:25:16.005Z,25.07
2018-12-23T13:28:18.832Z,26.27
2018-12-23T13:31:21.026Z,22.87
2018-12-23T13:33:59.332Z,22.37
2018-12-23T13:36:41.847Z,24.87
2018-12-23T13:39:21.498Z,36.17
2018-12-23T13:42:25.418Z,26.10
2018-12-23T13:45:27.771Z,26.77
2018-12-23T13:48:20.032Z,26.87
2018-12-23T13:51:23.797Z,31.53
2018-12-23T13:56:20.157Z,27.60
2018-12-23T13:59:23.354Z,24.83
2018-12-23T14:02:23.048Z,25.53
2018-12-23T14:05:18.320Z,25.33
2018-12-23T14:10:20.925Z,29.53
2018-12-23T14:12:59.901Z,23.07
2018-12-23T14:19:07.546Z,27.07
2018-12-23T14:22:11.525Z,25.70
2018-12-23T14:28:20.861Z,22.53
2018-12-23T14:30:59.121Z,31.10
2018-12-23T14:33:37.608Z,26.87
2018-12-23T14:36:19.218Z,30.33
2018-12-23T14:42:26.064Z,27.10
2018-12-23T14:45:28.864Z,29.97
2018-12-23T14:48:06.939Z,26.17
2018-12-23T14:51:05.983Z,29.47
2018-12-23T14:53:44.503Z,28.57
2018-12-23T14:56:22.592Z,27.13
2018-12-23T14:58:59.236Z,24.90
2018-12-23T15:01:37.683Z,23.47
2018-12-23T15:07:45.799Z,25.50
2018-12-23T15:10:44.390Z,28.77
2018-12-23T15:13:27.149Z,25.00
2018-12-23T15:16:05.499Z,22.83
2018-12-23T15:18:44.967Z,23.60
2018-12-23T15:21:22.821Z,27.30
2018-12-23T15:27:32.941Z,23.70
2018-12-23T15:30:22.503Z,26.30
2018-12-23T15:33:04.495Z,22.57
2018-12-23T15:35:42.932Z,24.23
2018-12-23T15:38:22.702Z,22.70
2018-12-23T15:41:00.822Z,31.97
2018-12-23T15:43:39.007Z,24.17
2018-12-23T15:46:18.041Z,26.70
2018-12-23T15:48:59.526Z,31.57
2018-12-23T15:51:37.922Z,24.63
2018-12-23T15:54:46.162Z,22.30
2018-12-23T15:57:22.671Z,24.30
2018-12-23T16:00:00.908Z,22.10
2018-12-23T16:02:39.162Z,24.27
2018-12-23T16:05:43.045Z,25.37
2018-12-23T16:08:29.011Z,26.23
2018-12-23T16:11:14.952Z,24.57
2018-12-23T16:13:53.253Z,26.47
2018-12-23T16:16:34.880Z,22.90
2018-12-23T16:19:37.316Z,22.80
2018-12-23T16:22:41.185Z,23.87
2018-12-23T16:25:45.219Z,25.53
2018-12-23T16:28:49.165Z,19.00
2018-12-23T16:31:27.406Z,21.47
2018-12-23T16:34:30.408Z,22.40
2018-12-23T16:37:10.550Z,25.43
2018-12-23T16:39:59.494Z,24.80
2018-12-23T16:42:34.278Z,23.50
2018-12-23T16:45:13.774Z,21.37
2018-12-23T16:51:24.528Z,22.03
2018-12-23T16:57:58.553Z,30.23
2018-12-23T17:00:35.933Z,27.37
2018-12-23T17:03:14.081Z,25.50
2018-12-23T17:05:56.660Z,24.53
2018-12-23T17:08:59.489Z,22.30
2018-12-23T17:12:02.464Z,22.97
2018-12-23T17:14:40.786Z,20.50
2018-12-23T17:17:43.854Z,23.03
2018-12-23T17:20:46.885Z,19.97
2018-12-23T17:23:27.365Z,20.53
2018-12-23T17:26:31.165Z,20.17
2018-12-23T17:29:12.791Z,20.60
2018-12-23T17:35:24.719Z,24.47
2018-12-23T17:38:04.610Z,19.87
2018-12-23T17:47:48.197Z,16.27
2018-12-23T17:56:56.786Z,15.43
2018-12-23T18:03:31.876Z,12.63
2018-12-23T18:06:34.601Z,12.97
2018-12-23T18:13:09.045Z,11.70
2018-12-23T18:15:50.796Z,13.77
2018-12-23T18:22:22.971Z,12.47
2018-12-23T18:27:30.469Z,17.27
2018-12-23T18:29:59.923Z,16.00
2018-12-23T18:32:29.376Z,18.33
2018-12-23T18:34:58.858Z,17.17
2018-12-23T18:37:28.243Z,12.97
2018-12-23T18:39:57.690Z,12.77
2018-12-23T18:42:27.116Z,12.27
2018-12-23T18:44:56.536Z,12.57
2018-12-23T18:47:26.152Z,12.10
2018-12-23T18:49:55.491Z,12.77
2018-12-23T18:52:24.940Z,9.63
2018-12-23T18:54:54.284Z,7.50
2018-12-23T18:57:23.709Z,8.17
2018-12-23T18:59:53.345Z,7.17
2018-12-23T19:02:29.795Z,6.13
2018-12-23T19:04:59.162Z,6.43
2018-12-23T19:07:28.551Z,7.57
2018-12-23T19:10:16.188Z,7.87
2018-12-23T19:13:21.988Z,5.00
2018-12-23T19:16:24.426Z,7.70
2018-12-23T19:19:46.534Z,6.77
2018-12-23T19:22:58.943Z,10.50
2018-12-23T19:25:58.316Z,7.23
2018-12-23T19:28:41.419Z,8.63
2018-12-23T19:31:46.628Z,8.60
2018-12-23T19:35:00.620Z,12.50
2018-12-23T19:38:07.189Z,8.63
2018-12-23T19:41:16.519Z,8.13
2018-12-23T19:44:45.304Z,9.93
2018-12-23T19:47:49.209Z,9.43
2018-12-23T19:50:59.356Z,10.47
2018-12-23T19:54:18.880Z,9.70
2018-12-23T19:57:17.380Z,12.70
2018-12-23T20:00:20.885Z,10.83
2018-12-23T20:03:26.148Z,10.63
2018-12-23T20:06:30.226Z,10.50
2018-12-23T20:09:15.487Z,12.37
2018-12-23T20:12:33.658Z,8.97
2018-12-23T20:15:23.479Z,12.53
2018-12-23T20:18:41.778Z,8.10
2018-12-23T20:21:36.583Z,7.63
2018-12-23T20:24:52.083Z,9.27
2018-12-23T20:27:53.235Z,8.67
2018-12-23T20:31:06.531Z,11.10
2018-12-23T20:34:12.791Z,12.60
2018-12-23T20:37:22.329Z,9.63
2018-12-23T20:40:44.619Z,12.43
2018-12-23T20:43:58.039Z,9.90
2018-12-23T20:46:53.599Z,12.73
2018-12-23T20:49:54.773Z,13.20
2018-12-23T20:53:09.052Z,14.07
2018-12-23T20:56:19.018Z,13.13
2018-12-23T20:59:17.802Z,17.53
2018-12-23T21:02:14.832Z,19.33
2018-12-23T21:04:59.893Z,17.77
2018-12-23T21:08:28.408Z,19.10
2018-12-23T21:11:50.756Z,14.47
2018-12-23T21:14:57.622Z,14.77
2018-12-23T21:18:17.419Z,14.40
2018-12-23T21:21:23.524Z,15.63
2018-12-23T21:24:32.790Z,13.87
2018-12-23T21:27:42.678Z,16.23
2018-12-23T21:30:42.706Z,14.83
2018-12-23T21:33:54.935Z,17.73
2018-12-23T21:36:44.645Z,17.50
2018-12-23T21:40:09.917Z,18.23
2018-12-23T21:43:19.217Z,21.17
2018-12-23T21:46:25.163Z,17.70
2018-12-23T21:49:59.741Z,17.90
2018-12-23T21:53:06.221Z,20.60
2018-12-23T21:56:00.233Z,17.40
2018-12-23T21:59:15.254Z,16.93
2018-12-23T22:02:43.760Z,14.87
2018-12-23T22:05:50.112Z,14.10
2018-12-23T22:08:55.589Z,14.93
2018-12-23T22:12:08.637Z,12.60
2018-12-23T22:14:38.173Z,15.60
2018-12-23T22:17:07.608Z,15.40
2018-12-23T22:19:36.977Z,12.53
2018-12-23T22:22:06.371Z,12.23
2018-12-23T22:24:35.791Z,18.30
2018-12-23T22:27:05.277Z,15.57
2018-12-23T22:29:34.794Z,14.93
2018-12-23T22:32:04.253Z,14.10
2018-12-23T22:34:33.628Z,17.37
2018-12-23T22:37:03.037Z,17.93
2018-12-23T22:39:32.410Z,16.63
2018-12-23T22:42:01.828Z,16.63
2018-12-23T22:44:31.200Z,15.27
2018-12-23T22:47:00.635Z,14.80
2018-12-23T22:49:30.105Z,14.37
2018-12-23T22:51:59.605Z,16.30
2018-12-23T22:54:29.017Z,14.30
2018-12-23T22:56:58.394Z,13.83
2018-12-23T22:59:27.815Z,12.37
2018-12-23T23:01:57.199Z,13.83
2018-12-23T23:04:26.581Z,12.20
2018-12-23T23:06:55.953Z,13.20
2018-12-23T23:09:25.329Z,12.23
2018-12-23T23:11:54.739Z,12.40
2018-12-23T23:14:24.155Z,12.67
2018-12-23T23:16:53.533Z,11.47
2018-12-23T23:19:22.940Z,11.67
2018-12-23T23:21:55.493Z,15.17
2018-12-23T23:24:24.880Z,11.13
2018-12-23T23:26:54.319Z,11.10
2018-12-23T23:29:23.726Z,11.30
2018-12-23T23:31:53.107Z,11.80
2018-12-23T23:34:22.496Z,10.80
2018-12-23T23:36:51.905Z,11.53
2018-12-23T23:39:21.307Z,11.97
2018-12-23T23:41:58.247Z,12.33
2018-12-23T23:44:22.628Z,11.03
2018-12-23T23:46:52.099Z,13.10
2018-12-23T23:49:21.428Z,12.50
2018-12-23T23:51:50.845Z,11.97
2018-12-23T23:54:20.292Z,12.70
2018-12-23T23:56:49.732Z,12.30
2018-12-23T23:59:19.077Z,11.67
